createdAt,value
2022-10-13T00:01:19.529Z,95.78
2022-10-13T00:04:22.399Z,95.91
2022-10-13T00:07:26.428Z,96.20
2022-10-13T00:10:29.457Z,96.31
2022-10-13T00:13:33.220Z,96.66
2022-10-13T00:16:36.277Z,96.70
2022-10-13T00:19:38.983Z,96.71
2022-10-13T00:22:41.912Z,96.55
2022-10-13T00:25:47.099Z,96.53
2022-10-13T00:28:52.778Z,96.68
2022-10-13T00:31:55.835Z,96.23
2022-10-13T00:34:58.925Z,96.23
2022-10-13T00:38:01.643Z,96.14
2022-10-13T00:41:07.294Z,96.66
2022-10-13T00:44:47.998Z,96.68
2022-10-13T00:47:57.253Z,96.71
2022-10-13T00:51:00.000Z,96.81
2022-10-13T00:54:04.032Z,97.08
2022-10-13T00:57:08.244Z,97.62
2022-10-13T01:00:12.304Z,97.52
2022-10-13T01:03:15.491Z,97.46
2022-10-13T01:06:23.404Z,97.33
2022-10-13T01:09:26.686Z,97.32
2022-10-13T01:12:43.189Z,97.50
2022-10-13T01:16:04.242Z,97.77
2022-10-13T01:19:34.746Z,98.02
2022-10-13T01:22:52.524Z,97.78
2022-10-13T01:26:20.262Z,97.51
2022-10-13T01:29:28.759Z,97.55
2022-10-13T01:32:34.538Z,97.99
2022-10-13T01:36:00.178Z,97.80
2022-10-13T01:39:03.102Z,97.66
2022-10-13T01:42:13.220Z,97.83
2022-10-13T01:45:18.377Z,97.75
2022-10-13T01:48:21.522Z,97.82
2022-10-13T01:51:27.848Z,97.66
2022-10-13T01:54:30.644Z,97.62
2022-10-13T01:57:42.076Z,97.43
2022-10-13T02:01:06.647Z,97.30
2022-10-13T02:04:21.889Z,97.01
2022-10-13T02:07:30.214Z,96.17
2022-10-13T02:11:02.051Z,95.80
2022-10-13T02:14:12.924Z,95.33
2022-10-13T02:17:16.547Z,94.98
2022-10-13T02:20:21.032Z,94.78
2022-10-13T02:23:24.874Z,95.48
2022-10-13T02:26:27.871Z,96.74
2022-10-13T02:29:52.431Z,96.36
2022-10-13T02:32:55.253Z,96.78
2022-10-13T02:35:58.214Z,97.05
2022-10-13T02:39:00.969Z,97.50
2022-10-13T02:42:04.289Z,97.84
2022-10-13T02:45:07.701Z,97.79
2022-10-13T02:48:10.732Z,97.73
2022-10-13T02:51:13.508Z,98.80
2022-10-13T02:54:16.604Z,98.11
2022-10-13T02:57:19.356Z,98.17
2022-10-13T03:00:24.204Z,98.14
2022-10-13T03:03:26.913Z,98.03
2022-10-13T03:06:29.990Z,97.89
2022-10-13T03:09:33.142Z,97.78
2022-10-13T03:12:36.188Z,97.54
2022-10-13T03:15:39.409Z,97.80
2022-10-13T03:18:45.674Z,97.66
2022-10-13T03:21:48.612Z,97.42
2022-10-13T03:24:52.032Z,97.27
2022-10-13T03:27:55.827Z,97.24
2022-10-13T03:31:03.453Z,96.99
2022-10-13T03:34:06.338Z,97.11
2022-10-13T03:37:09.729Z,97.04
2022-10-13T03:40:13.183Z,97.19
2022-10-13T03:43:16.542Z,97.17
2022-10-13T03:46:19.276Z,97.20
2022-10-13T03:49:22.532Z,97.09
2022-10-13T03:52:25.025Z,97.22
2022-10-13T03:55:27.952Z,96.71
2022-10-13T03:58:30.516Z,96.46
2022-10-13T04:01:33.977Z,97.08
2022-10-13T04:04:38.383Z,97.41
2022-10-13T04:07:41.120Z,96.94
2022-10-13T04:10:58.734Z,96.76
2022-10-13T04:14:01.419Z,96.69
2022-10-13T04:17:04.773Z,97.64
2022-10-13T04:20:08.096Z,97.40
2022-10-13T04:23:12.376Z,97.51
2022-10-13T04:26:20.574Z,98.14
2022-10-13T04:29:24.256Z,97.88
2022-10-13T04:32:28.882Z,98.14
2022-10-13T04:35:31.990Z,99.97
2022-10-13T04:38:35.870Z,100.00
2022-10-13T04:41:38.895Z,99.06
2022-10-13T04:44:42.058Z,98.19
2022-10-13T04:47:47.414Z,98.15
2022-10-13T04:51:00.455Z,98.24
2022-10-13T04:54:05.704Z,98.23
2022-10-13T04:57:09.527Z,98.50
2022-10-13T05:00:13.170Z,98.56
2022-10-13T05:03:15.987Z,98.60
2022-10-13T05:06:21.768Z,99.04
2022-10-13T05:09:25.091Z,99.11
2022-10-13T05:12:28.336Z,99.00
2022-10-13T05:15:31.062Z,99.56
2022-10-13T05:18:34.522Z,99.30
2022-10-13T05:21:37.268Z,99.17
2022-10-13T05:24:40.987Z,98.90
2022-10-13T05:27:45.290Z,98.68
2022-10-13T05:30:48.304Z,98.71
2022-10-13T05:33:52.324Z,98.63
2022-10-13T05:36:56.432Z,99.07
2022-10-13T05:39:59.064Z,98.66
2022-10-13T05:43:04.282Z,98.78
2022-10-13T05:46:07.920Z,98.71
2022-10-13T05:49:12.230Z,98.22
2022-10-13T05:52:15.013Z,98.00
2022-10-13T05:55:18.895Z,97.64
2022-10-13T05:58:22.890Z,97.18
2022-10-13T06:01:27.148Z,97.20
2022-10-13T06:04:32.630Z,97.03
2022-10-13T06:07:36.007Z,96.87
2022-10-13T06:10:39.228Z,96.52
2022-10-13T06:13:41.939Z,96.86
2022-10-13T06:16:44.929Z,96.19
2022-10-13T06:19:47.776Z,96.55
2022-10-13T06:22:51.196Z,96.97
2022-10-13T06:25:55.376Z,96.59
2022-10-13T06:28:59.697Z,96.16
2022-10-13T06:32:03.087Z,96.40
2022-10-13T06:35:06.585Z,96.15
2022-10-13T06:38:09.957Z,96.12
2022-10-13T06:41:14.503Z,95.39
2022-10-13T06:44:17.515Z,93.92
2022-10-13T06:47:20.567Z,93.68
2022-10-13T06:50:23.804Z,92.72
2022-10-13T06:53:27.034Z,92.08
2022-10-13T06:56:30.263Z,91.46
2022-10-13T06:59:34.465Z,91.40
2022-10-13T07:02:41.767Z,92.22
2022-10-13T07:05:45.434Z,92.19
2022-10-13T07:08:48.203Z,91.05
2022-10-13T07:11:52.073Z,91.50
2022-10-13T07:14:55.006Z,91.10
2022-10-13T07:17:58.069Z,90.25
2022-10-13T07:21:01.881Z,89.53
2022-10-13T07:24:05.575Z,88.74
2022-10-13T07:27:08.335Z,88.67
2022-10-13T07:30:12.802Z,87.76
2022-10-13T07:33:16.037Z,87.28
2022-10-13T07:36:19.645Z,86.92
2022-10-13T07:39:22.404Z,87.90
2022-10-13T07:42:25.417Z,87.02
2022-10-13T07:45:28.869Z,86.00
2022-10-13T07:48:36.935Z,87.37
2022-10-13T07:51:39.763Z,87.54
2022-10-13T07:54:44.719Z,87.74
2022-10-13T07:57:47.566Z,86.70
2022-10-13T08:00:59.561Z,86.71
2022-10-13T08:04:02.805Z,86.60
2022-10-13T08:07:06.305Z,86.03
2022-10-13T08:10:09.809Z,86.24
2022-10-13T08:13:12.992Z,84.67
2022-10-13T08:16:17.299Z,83.29
2022-10-13T08:19:22.302Z,81.45
2022-10-13T08:22:28.257Z,80.48
2022-10-13T08:25:31.335Z,80.57
2022-10-13T08:28:34.719Z,80.33
2022-10-13T08:31:37.754Z,79.34
2022-10-13T08:34:41.140Z,78.25
2022-10-13T08:37:43.885Z,76.81
2022-10-13T08:40:50.710Z,77.00
2022-10-13T08:44:59.212Z,76.74
2022-10-13T08:47:35.915Z,76.45
2022-10-13T08:50:42.056Z,74.74
2022-10-13T08:53:46.669Z,75.23
2022-10-13T08:56:51.179Z,74.76
2022-10-13T08:59:54.070Z,72.33
2022-10-13T09:03:05.828Z,72.02
2022-10-13T09:06:17.205Z,70.55
2022-10-13T09:09:20.028Z,70.92
2022-10-13T09:12:25.409Z,68.37
2022-10-13T09:15:28.586Z,70.09
2022-10-13T09:18:33.069Z,68.42
2022-10-13T09:21:35.958Z,68.17
2022-10-13T09:24:39.207Z,69.66
2022-10-13T09:27:55.149Z,68.64
2022-10-13T09:31:13.252Z,69.21
2022-10-13T09:34:24.434Z,68.16
2022-10-13T09:37:28.652Z,68.07
2022-10-13T09:40:32.470Z,67.57
2022-10-13T09:43:38.544Z,67.70
2022-10-13T09:46:52.454Z,67.26
2022-10-13T09:50:07.641Z,66.45
2022-10-13T09:53:16.686Z,66.66
2022-10-13T09:56:24.206Z,65.54
2022-10-13T09:59:41.749Z,65.10
2022-10-13T10:02:56.956Z,65.94
2022-10-13T10:06:01.074Z,64.25
2022-10-13T10:09:18.877Z,64.73
2022-10-13T10:12:27.668Z,67.84
2022-10-13T10:15:43.836Z,70.49
2022-10-13T10:18:58.768Z,70.37
2022-10-13T10:22:19.620Z,70.38
2022-10-13T10:25:49.884Z,69.78
2022-10-13T10:29:10.939Z,68.97
2022-10-13T10:32:50.991Z,68.76
2022-10-13T10:36:38.386Z,69.11
2022-10-13T10:40:11.888Z,67.71
2022-10-13T10:43:37.690Z,65.47
2022-10-13T10:46:46.945Z,64.97
2022-10-13T10:49:51.343Z,65.76
2022-10-13T10:53:01.706Z,64.16
2022-10-13T10:56:42.570Z,61.44
2022-10-13T11:00:00.335Z,60.85
2022-10-13T11:03:35.092Z,60.90
2022-10-13T11:06:38.636Z,61.65
2022-10-13T11:09:41.324Z,60.71
2022-10-13T11:12:53.325Z,60.00
2022-10-13T11:15:56.298Z,59.34
2022-10-13T11:19:08.876Z,59.02
2022-10-13T11:22:17.188Z,59.67
2022-10-13T11:25:46.385Z,58.72
2022-10-13T11:28:50.886Z,58.24
2022-10-13T11:31:55.348Z,55.43
2022-10-13T11:35:04.673Z,57.60
2022-10-13T11:38:22.490Z,53.92
2022-10-13T11:41:30.481Z,50.77
2022-10-13T11:44:59.567Z,52.09
2022-10-13T11:48:12.257Z,52.87
2022-10-13T11:51:23.245Z,50.66
2022-10-13T11:54:31.055Z,48.64
2022-10-13T11:57:34.092Z,47.28
2022-10-13T12:00:38.074Z,45.96
2022-10-13T12:03:43.625Z,46.19
2022-10-13T12:06:48.700Z,45.55
2022-10-13T12:09:57.343Z,43.02
2022-10-13T12:13:03.025Z,43.38
2022-10-13T12:16:07.161Z,41.67
2022-10-13T12:19:20.182Z,41.51
2022-10-13T12:22:23.498Z,41.72
2022-10-13T12:25:29.003Z,51.10
2022-10-13T12:29:12.791Z,55.04
2022-10-13T12:32:26.480Z,53.66
2022-10-13T12:35:34.290Z,52.63
2022-10-13T12:38:37.374Z,47.49
2022-10-13T12:41:43.621Z,45.20
2022-10-13T12:44:46.979Z,43.08
2022-10-13T12:47:52.628Z,44.07
2022-10-13T12:50:55.550Z,44.48
2022-10-13T12:53:58.575Z,43.80
2022-10-13T12:57:05.511Z,40.78
2022-10-13T13:00:21.033Z,42.88
2022-10-13T13:03:28.844Z,38.76
2022-10-13T13:06:37.129Z,39.97
2022-10-13T13:09:41.273Z,37.06
2022-10-13T13:12:45.755Z,37.58
2022-10-13T13:15:51.223Z,36.97
2022-10-13T13:18:54.213Z,40.72
2022-10-13T13:21:58.162Z,40.05
2022-10-13T13:25:01.400Z,37.38
2022-10-13T13:28:05.368Z,37.01
2022-10-13T13:31:09.601Z,42.10
2022-10-13T13:34:12.212Z,38.73
2022-10-13T13:37:31.211Z,38.06
2022-10-13T13:40:34.528Z,38.95
2022-10-13T13:43:38.548Z,38.01
2022-10-13T13:46:42.251Z,39.31
2022-10-13T13:49:45.746Z,37.77
2022-10-13T13:52:48.506Z,34.67
2022-10-13T13:55:52.285Z,39.73
2022-10-13T13:58:54.999Z,38.93
2022-10-13T14:01:58.098Z,39.52
2022-10-13T14:05:02.808Z,38.38
2022-10-13T14:08:05.635Z,38.73
2022-10-13T14:11:09.318Z,39.31
2022-10-13T14:14:12.125Z,38.58
2022-10-13T14:17:15.135Z,39.22
2022-10-13T14:20:19.107Z,36.54
2022-10-13T14:23:22.084Z,37.40
2022-10-13T14:26:25.445Z,38.41
2022-10-13T14:29:28.435Z,38.41
2022-10-13T14:32:31.225Z,40.67
2022-10-13T14:35:34.264Z,40.70
2022-10-13T14:38:38.668Z,39.87
2022-10-13T14:41:42.307Z,38.26
2022-10-13T14:44:45.318Z,38.22
2022-10-13T14:47:48.486Z,38.87
2022-10-13T14:50:51.174Z,39.73
2022-10-13T14:53:54.194Z,40.38
2022-10-13T14:56:56.940Z,41.49
2022-10-13T15:00:02.236Z,42.34
2022-10-13T15:03:06.478Z,42.52
2022-10-13T15:06:14.322Z,40.71
2022-10-13T15:09:18.169Z,41.42
2022-10-13T15:12:21.582Z,42.91
2022-10-13T15:15:24.890Z,41.49
2022-10-13T15:18:29.435Z,42.04
2022-10-13T15:21:32.323Z,44.95
2022-10-13T15:24:36.170Z,46.20
2022-10-13T15:27:42.099Z,48.59
2022-10-13T15:30:45.886Z,47.43
2022-10-13T15:33:52.176Z,48.15
2022-10-13T15:36:56.639Z,48.21
2022-10-13T15:39:59.535Z,48.87
2022-10-13T15:43:02.622Z,50.47
2022-10-13T15:46:08.758Z,53.32
2022-10-13T15:49:11.776Z,54.14
2022-10-13T15:52:14.620Z,55.44
2022-10-13T15:55:18.098Z,56.87
2022-10-13T15:58:20.920Z,58.60
2022-10-13T16:01:24.230Z,60.14
2022-10-13T16:04:29.739Z,61.78
2022-10-13T16:07:35.490Z,61.87
2022-10-13T16:10:41.629Z,63.38
2022-10-13T16:13:47.104Z,64.18
2022-10-13T16:16:51.109Z,63.92
2022-10-13T16:19:53.835Z,66.43
2022-10-13T16:22:57.876Z,65.60
2022-10-13T16:26:02.461Z,66.56
2022-10-13T16:29:06.499Z,66.81
2022-10-13T16:32:09.330Z,67.57
2022-10-13T16:35:12.477Z,67.29
2022-10-13T16:38:15.879Z,67.73
2022-10-13T16:41:18.954Z,68.17
2022-10-13T16:44:21.720Z,68.47
2022-10-13T16:47:24.965Z,68.38
2022-10-13T16:50:27.916Z,69.13
2022-10-13T16:53:31.229Z,69.02
2022-10-13T16:56:34.104Z,69.78
2022-10-13T16:59:37.128Z,70.23
2022-10-13T17:02:39.920Z,70.13
2022-10-13T17:05:43.425Z,70.12
2022-10-13T17:08:46.888Z,70.56
2022-10-13T17:11:50.066Z,70.94
2022-10-13T17:14:53.381Z,70.80
2022-10-13T17:17:56.719Z,71.23
2022-10-13T17:21:01.398Z,71.15
2022-10-13T17:24:05.022Z,71.41
2022-10-13T17:27:08.090Z,71.79
2022-10-13T17:30:12.049Z,71.54
2022-10-13T17:33:15.561Z,71.36
2022-10-13T17:36:21.756Z,71.45
2022-10-13T17:39:25.231Z,70.31
2022-10-13T17:42:30.110Z,70.10
2022-10-13T17:45:33.912Z,69.45
2022-10-13T17:48:40.084Z,69.12
2022-10-13T17:51:44.764Z,69.50
2022-10-13T17:54:50.003Z,68.45
2022-10-13T17:57:53.406Z,68.37
2022-10-13T18:01:12.570Z,69.70
2022-10-13T18:04:18.895Z,69.08
2022-10-13T18:07:22.250Z,68.53
2022-10-13T18:10:25.926Z,69.26
2022-10-13T18:13:31.177Z,69.59
2022-10-13T18:16:35.125Z,68.89
2022-10-13T18:19:40.553Z,68.40
2022-10-13T18:22:44.278Z,68.97
2022-10-13T18:25:49.043Z,72.59
2022-10-13T18:28:53.937Z,73.37
2022-10-13T18:31:57.339Z,74.22
2022-10-13T18:35:00.623Z,72.27
2022-10-13T18:38:04.186Z,71.74
2022-10-13T18:41:09.781Z,71.20
2022-10-13T18:44:14.548Z,71.03
2022-10-13T18:47:18.361Z,70.37
2022-10-13T18:50:21.954Z,70.24
2022-10-13T18:53:25.663Z,70.59
2022-10-13T18:56:30.684Z,70.69
2022-10-13T18:59:39.125Z,72.01
2022-10-13T19:02:42.771Z,73.92
2022-10-13T19:05:49.312Z,75.53
2022-10-13T19:08:59.544Z,75.50
2022-10-13T19:12:02.838Z,75.76
2022-10-13T19:15:06.844Z,75.80
2022-10-13T19:18:10.435Z,76.12
2022-10-13T19:21:15.515Z,76.19
2022-10-13T19:24:20.602Z,76.39
2022-10-13T19:27:24.069Z,76.56
2022-10-13T19:30:27.701Z,76.83
2022-10-13T19:33:31.611Z,77.13
2022-10-13T19:36:39.386Z,77.66
2022-10-13T19:39:42.692Z,78.30
2022-10-13T19:42:46.223Z,79.12
2022-10-13T19:45:58.805Z,79.53
2022-10-13T19:49:05.237Z,79.63
2022-10-13T19:52:09.611Z,80.01
2022-10-13T19:55:14.493Z,80.06
2022-10-13T19:58:18.126Z,80.14
2022-10-13T20:01:22.276Z,79.81
2022-10-13T20:04:25.746Z,79.54
2022-10-13T20:07:28.833Z,80.09
2022-10-13T20:10:32.196Z,81.08
2022-10-13T20:13:35.720Z,82.10
2022-10-13T20:16:39.089Z,81.97
2022-10-13T20:19:43.499Z,82.71
2022-10-13T20:22:47.147Z,82.88
2022-10-13T20:25:49.988Z,82.60
2022-10-13T20:28:54.626Z,83.22
2022-10-13T20:31:57.473Z,83.69
2022-10-13T20:35:00.472Z,84.13
2022-10-13T20:38:03.531Z,83.90
2022-10-13T20:41:15.435Z,84.04
2022-10-13T20:44:18.201Z,84.68
2022-10-13T20:47:21.521Z,85.12
2022-10-13T20:50:24.455Z,85.09
2022-10-13T20:53:27.759Z,84.90
2022-10-13T20:56:33.472Z,84.26
2022-10-13T20:59:36.674Z,84.45
2022-10-13T21:02:39.383Z,85.06
2022-10-13T21:05:42.348Z,85.28
2022-10-13T21:08:46.503Z,85.31
2022-10-13T21:11:49.587Z,85.47
2022-10-13T21:14:53.610Z,85.43
2022-10-13T21:17:56.735Z,85.47
2022-10-13T21:21:10.901Z,85.08
2022-10-13T21:24:15.185Z,84.79
2022-10-13T21:27:18.514Z,84.82
2022-10-13T21:30:21.719Z,84.75
2022-10-13T21:33:24.786Z,85.05
2022-10-13T21:36:33.269Z,85.12
2022-10-13T21:39:36.174Z,85.24
2022-10-13T21:42:39.894Z,85.42
2022-10-13T21:45:42.719Z,85.38
2022-10-13T21:48:46.985Z,85.73
2022-10-13T21:51:49.815Z,86.06
2022-10-13T21:54:53.346Z,86.31
2022-10-13T21:57:59.629Z,86.46
2022-10-13T22:01:08.104Z,86.71
2022-10-13T22:04:13.403Z,87.18
2022-10-13T22:07:16.096Z,87.29
2022-10-13T22:10:19.285Z,87.31
2022-10-13T22:13:22.005Z,87.50
2022-10-13T22:16:31.324Z,87.17
2022-10-13T22:19:34.559Z,87.09
2022-10-13T22:22:37.895Z,86.99
2022-10-13T22:25:47.486Z,87.09
2022-10-13T22:28:51.860Z,87.03
2022-10-13T22:31:58.671Z,87.03
2022-10-13T22:35:02.194Z,86.88
2022-10-13T22:38:04.935Z,86.93
2022-10-13T22:41:08.414Z,87.23
2022-10-13T22:44:11.229Z,87.37
2022-10-13T22:47:14.253Z,87.58
2022-10-13T22:50:18.457Z,87.61
2022-10-13T22:53:22.911Z,87.44
2022-10-13T22:56:28.122Z,87.31
2022-10-13T22:59:31.438Z,87.18
2022-10-13T23:02:34.933Z,87.32
2022-10-13T23:05:41.250Z,87.39
2022-10-13T23:08:44.129Z,87.33
2022-10-13T23:11:47.523Z,87.77
2022-10-13T23:14:53.729Z,88.33
2022-10-13T23:17:56.762Z,88.27
2022-10-13T23:20:59.511Z,88.54
2022-10-13T23:24:06.565Z,88.60
2022-10-13T23:27:09.282Z,88.47
2022-10-13T23:30:12.981Z,88.82
2022-10-13T23:33:15.711Z,88.75
2022-10-13T23:36:24.713Z,89.21
2022-10-13T23:39:29.752Z,89.49
2022-10-13T23:42:32.806Z,89.64
2022-10-13T23:45:35.510Z,89.79
2022-10-13T23:48:40.089Z,90.21
2022-10-13T23:51:43.641Z,91.11
2022-10-13T23:54:46.621Z,90.69
2022-10-13T23:57:49.989Z,90.38
